sensor_id;sensor_type;location;lat;lon;timestamp;pressure;altitude;pressure_sealevel;temperature
70969;BMP280;58630;43.022;25.100;2023-07-02T00:02:05;;;;27.80
70969;BMP280;58630;43.022;25.100;2023-07-02T00:04:31;;;;27.80
70969;BMP280;58630;43.022;25.100;2023-07-02T00:06:56;;;;27.80
70969;BMP280;58630;43.022;25.100;2023-07-02T00:09:22;;;;27.90
70969;BMP280;58630;43.022;25.100;2023-07-02T00:11:48;;;;27.80
70969;BMP280;58630;43.022;25.100;2023-07-02T00:14:13;;;;27.80
70969;BMP280;58630;43.022;25.100;2023-07-02T00:16:43;;;;27.80
70969;BMP280;58630;43.022;25.100;2023-07-02T00:19:09;;;;27.80
70969;BMP280;58630;43.022;25.100;2023-07-02T00:21:35;;;;27.80
70969;BMP280;58630;43.022;25.100;2023-07-02T00:24:02;;;;27.70
70969;BMP280;58630;43.022;25.100;2023-07-02T00:26:28;;;;27.70
70969;BMP280;58630;43.022;25.100;2023-07-02T00:28:54;;;;27.80
70969;BMP280;58630;43.022;25.100;2023-07-02T00:31:19;;;;27.80
70969;BMP280;58630;43.022;25.100;2023-07-02T00:33:45;;;;27.80
70969;BMP280;58630;43.022;25.100;2023-07-02T00:36:11;;;;27.80
70969;BMP280;58630;43.022;25.100;2023-07-02T00:38:43;;;;27.80
70969;BMP280;58630;43.022;25.100;2023-07-02T00:41:09;;;;27.80
70969;BMP280;58630;43.022;25.100;2023-07-02T00:43:35;;;;27.80
70969;BMP280;58630;43.022;25.100;2023-07-02T00:46:01;;;;27.70
70969;BMP280;58630;43.022;25.100;2023-07-02T00:48:28;;;;27.70
70969;BMP280;58630;43.022;25.100;2023-07-02T00:50:53;;;;27.70
70969;BMP280;58630;43.022;25.100;2023-07-02T00:53:19;;;;27.70
70969;BMP280;58630;43.022;25.100;2023-07-02T00:55:45;;;;27.70
70969;BMP280;58630;43.022;25.100;2023-07-02T00:58:10;;;;27.70
70969;BMP280;58630;43.022;25.100;2023-07-02T01:00:36;;;;27.60
70969;BMP280;58630;43.022;25.100;2023-07-02T01:03:01;;;;27.60
70969;BMP280;58630;43.022;25.100;2023-07-02T01:05:30;;;;27.60
70969;BMP280;58630;43.022;25.100;2023-07-02T01:08:05;;;;27.60
70969;BMP280;58630;43.022;25.100;2023-07-02T01:10:33;;;;27.60
70969;BMP280;58630;43.022;25.100;2023-07-02T01:13:01;;;;27.60
70969;BMP280;58630;43.022;25.100;2023-07-02T01:15:29;;;;27.60
70969;BMP280;58630;43.022;25.100;2023-07-02T01:17:54;;;;27.50
70969;BMP280;58630;43.022;25.100;2023-07-02T01:20:20;;;;27.40
70969;BMP280;58630;43.022;25.100;2023-07-02T01:22:48;;;;27.40
70969;BMP280;58630;43.022;25.100;2023-07-02T01:25:14;;;;27.50
70969;BMP280;58630;43.022;25.100;2023-07-02T01:27:40;;;;27.50
70969;BMP280;58630;43.022;25.100;2023-07-02T01:30:06;;;;27.50
70969;BMP280;58630;43.022;25.100;2023-07-02T01:32:32;;;;27.40
70969;BMP280;58630;43.022;25.100;2023-07-02T01:34:58;;;;27.30
70969;BMP280;58630;43.022;25.100;2023-07-02T01:37:24;;;;27.40
70969;BMP280;58630;43.022;25.100;2023-07-02T01:39:49;;;;27.30
70969;BMP280;58630;43.022;25.100;2023-07-02T01:42:16;;;;27.40
70969;BMP280;58630;43.022;25.100;2023-07-02T01:44:42;;;;27.30
70969;BMP280;58630;43.022;25.100;2023-07-02T01:47:08;;;;27.10
70969;BMP280;58630;43.022;25.100;2023-07-02T01:49:34;;;;27.10
70969;BMP280;58630;43.022;25.100;2023-07-02T01:52:01;;;;27.10
70969;BMP280;58630;43.022;25.100;2023-07-02T01:54:27;;;;27.10
70969;BMP280;58630;43.022;25.100;2023-07-02T01:56:53;;;;27.20
70969;BMP280;58630;43.022;25.100;2023-07-02T01:59:19;;;;27.20
70969;BMP280;58630;43.022;25.100;2023-07-02T02:01:44;;;;27.10
70969;BMP280;58630;43.022;25.100;2023-07-02T02:04:10;;;;27.10
70969;BMP280;58630;43.022;25.100;2023-07-02T02:06:37;;;;27.10
70969;BMP280;58630;43.022;25.100;2023-07-02T02:09:02;;;;27.10
70969;BMP280;58630;43.022;25.100;2023-07-02T02:11:31;;;;27.10
70969;BMP280;58630;43.022;25.100;2023-07-02T02:13:57;;;;27.10
70969;BMP280;58630;43.022;25.100;2023-07-02T02:16:24;;;;27.10
70969;BMP280;58630;43.022;25.100;2023-07-02T02:18:49;;;;27.10
70969;BMP280;58630;43.022;25.100;2023-07-02T02:21:19;;;;27.00
70969;BMP280;58630;43.022;25.100;2023-07-02T02:23:44;;;;27.00
70969;BMP280;58630;43.022;25.100;2023-07-02T02:26:10;;;;27.00
70969;BMP280;58630;43.022;25.100;2023-07-02T02:28:35;;;;27.00
70969;BMP280;58630;43.022;25.100;2023-07-02T02:31:01;;;;26.90
70969;BMP280;58630;43.022;25.100;2023-07-02T02:33:27;;;;26.80
70969;BMP280;58630;43.022;25.100;2023-07-02T02:35:53;;;;26.70
70969;BMP280;58630;43.022;25.100;2023-07-02T02:38:18;;;;26.70
70969;BMP280;58630;43.022;25.100;2023-07-02T02:40:44;;;;26.80
70969;BMP280;58630;43.022;25.100;2023-07-02T02:43:10;;;;26.80
70969;BMP280;58630;43.022;25.100;2023-07-02T02:45:35;;;;26.80
70969;BMP280;58630;43.022;25.100;2023-07-02T02:48:01;;;;26.80
70969;BMP280;58630;43.022;25.100;2023-07-02T02:50:26;;;;26.80
70969;BMP280;58630;43.022;25.100;2023-07-02T02:52:52;;;;26.70
70969;BMP280;58630;43.022;25.100;2023-07-02T02:55:18;;;;26.60
70969;BMP280;58630;43.022;25.100;2023-07-02T02:57:43;;;;26.60
70969;BMP280;58630;43.022;25.100;2023-07-02T03:00:09;;;;26.50
70969;BMP280;58630;43.022;25.100;2023-07-02T03:02:35;;;;26.50
70969;BMP280;58630;43.022;25.100;2023-07-02T03:05:07;;;;26.50
70969;BMP280;58630;43.022;25.100;2023-07-02T03:07:33;;;;26.40
70969;BMP280;58630;43.022;25.100;2023-07-02T03:09:58;;;;26.40
70969;BMP280;58630;43.022;25.100;2023-07-02T03:12:27;;;;26.40
70969;BMP280;58630;43.022;25.100;2023-07-02T03:14:52;;;;26.40
70969;BMP280;58630;43.022;25.100;2023-07-02T03:17:20;;;;26.50
70969;BMP280;58630;43.022;25.100;2023-07-02T03:19:46;;;;26.50
70969;BMP280;58630;43.022;25.100;2023-07-02T03:22:12;;;;26.50
70969;BMP280;58630;43.022;25.100;2023-07-02T03:24:37;;;;26.50
70969;BMP280;58630;43.022;25.100;2023-07-02T03:27:03;;;;26.50
70969;BMP280;58630;43.022;25.100;2023-07-02T03:29:29;;;;26.40
70969;BMP280;58630;43.022;25.100;2023-07-02T03:31:54;;;;26.20
70969;BMP280;58630;43.022;25.100;2023-07-02T03:34:20;;;;26.20
70969;BMP280;58630;43.022;25.100;2023-07-02T03:36:47;;;;26.10
70969;BMP280;58630;43.022;25.100;2023-07-02T03:39:13;;;;26.10
70969;BMP280;58630;43.022;25.100;2023-07-02T03:41:39;;;;26.00
70969;BMP280;58630;43.022;25.100;2023-07-02T03:44:04;;;;26.00
70969;BMP280;58630;43.022;25.100;2023-07-02T03:46:30;;;;26.00
70969;BMP280;58630;43.022;25.100;2023-07-02T03:48:56;;;;26.00
70969;BMP280;58630;43.022;25.100;2023-07-02T03:51:22;;;;26.00
70969;BMP280;58630;43.022;25.100;2023-07-02T03:53:47;;;;26.10
70969;BMP280;58630;43.022;25.100;2023-07-02T03:56:13;;;;26.10
70969;BMP280;58630;43.022;25.100;2023-07-02T03:58:42;;;;26.20
70969;BMP280;58630;43.022;25.100;2023-07-02T04:01:08;;;;26.10
70969;BMP280;58630;43.022;25.100;2023-07-02T04:03:33;;;;26.10
70969;BMP280;58630;43.022;25.100;2023-07-02T04:05:59;;;;26.20
70969;BMP280;58630;43.022;25.100;2023-07-02T04:08:25;;;;26.20
70969;BMP280;58630;43.022;25.100;2023-07-02T04:10:50;;;;26.20
70969;BMP280;58630;43.022;25.100;2023-07-02T04:13:16;;;;26.20
70969;BMP280;58630;43.022;25.100;2023-07-02T04:15:42;;;;26.20
70969;BMP280;58630;43.022;25.100;2023-07-02T04:18:07;;;;26.20
70969;BMP280;58630;43.022;25.100;2023-07-02T04:20:33;;;;26.20
70969;BMP280;58630;43.022;25.100;2023-07-02T04:22:59;;;;26.20
70969;BMP280;58630;43.022;25.100;2023-07-02T04:25:24;;;;26.20
70969;BMP280;58630;43.022;25.100;2023-07-02T04:27:50;;;;26.20
70969;BMP280;58630;43.022;25.100;2023-07-02T04:30:16;;;;26.20
70969;BMP280;58630;43.022;25.100;2023-07-02T04:32:41;;;;26.20
70969;BMP280;58630;43.022;25.100;2023-07-02T04:35:07;;;;26.20
70969;BMP280;58630;43.022;25.100;2023-07-02T04:37:33;;;;26.10
70969;BMP280;58630;43.022;25.100;2023-07-02T04:39:59;;;;26.20
70969;BMP280;58630;43.022;25.100;2023-07-02T04:42:27;;;;26.20
70969;BMP280;58630;43.022;25.100;2023-07-02T04:44:53;;;;26.20
70969;BMP280;58630;43.022;25.100;2023-07-02T04:47:19;;;;26.20
70969;BMP280;58630;43.022;25.100;2023-07-02T04:49:45;;;;26.20
70969;BMP280;58630;43.022;25.100;2023-07-02T04:52:10;;;;26.10
70969;BMP280;58630;43.022;25.100;2023-07-02T04:54:36;;;;26.00
70969;BMP280;58630;43.022;25.100;2023-07-02T04:57:02;;;;26.00
70969;BMP280;58630;43.022;25.100;2023-07-02T04:59:27;;;;26.00
70969;BMP280;58630;43.022;25.100;2023-07-02T05:01:53;;;;25.90
70969;BMP280;58630;43.022;25.100;2023-07-02T05:04:18;;;;25.90
70969;BMP280;58630;43.022;25.100;2023-07-02T05:06:44;;;;26.00
70969;BMP280;58630;43.022;25.100;2023-07-02T05:09:09;;;;26.00
70969;BMP280;58630;43.022;25.100;2023-07-02T05:11:35;;;;25.90
70969;BMP280;58630;43.022;25.100;2023-07-02T05:14:00;;;;25.90
70969;BMP280;58630;43.022;25.100;2023-07-02T05:16:26;;;;26.00
70969;BMP280;58630;43.022;25.100;2023-07-02T05:18:52;;;;26.00
70969;BMP280;58630;43.022;25.100;2023-07-02T05:21:17;;;;26.00
70969;BMP280;58630;43.022;25.100;2023-07-02T05:23:43;;;;26.00
70969;BMP280;58630;43.022;25.100;2023-07-02T05:26:08;;;;25.90
70969;BMP280;58630;43.022;25.100;2023-07-02T05:28:34;;;;25.90
70969;BMP280;58630;43.022;25.100;2023-07-02T05:31:00;;;;26.00
70969;BMP280;58630;43.022;25.100;2023-07-02T05:33:25;;;;26.00
70969;BMP280;58630;43.022;25.100;2023-07-02T05:35:51;;;;26.00
70969;BMP280;58630;43.022;25.100;2023-07-02T05:38:17;;;;26.00
70969;BMP280;58630;43.022;25.100;2023-07-02T05:40:43;;;;26.00
70969;BMP280;58630;43.022;25.100;2023-07-02T05:43:08;;;;26.00
70969;BMP280;58630;43.022;25.100;2023-07-02T05:45:34;;;;26.00
70969;BMP280;58630;43.022;25.100;2023-07-02T05:47:59;;;;26.00
70969;BMP280;58630;43.022;25.100;2023-07-02T05:50:25;;;;26.00
70969;BMP280;58630;43.022;25.100;2023-07-02T05:52:50;;;;26.00
70969;BMP280;58630;43.022;25.100;2023-07-02T05:55:16;;;;26.00
70969;BMP280;58630;43.022;25.100;2023-07-02T05:57:41;;;;26.00
70969;BMP280;58630;43.022;25.100;2023-07-02T06:00:07;;;;26.00
70969;BMP280;58630;43.022;25.100;2023-07-02T06:02:33;;;;25.90
70969;BMP280;58630;43.022;25.100;2023-07-02T06:04:58;;;;25.90
70969;BMP280;58630;43.022;25.100;2023-07-02T06:07:24;;;;25.90
70969;BMP280;58630;43.022;25.100;2023-07-02T06:09:50;;;;25.90
70969;BMP280;58630;43.022;25.100;2023-07-02T06:12:15;;;;25.90
70969;BMP280;58630;43.022;25.100;2023-07-02T06:14:41;;;;25.90
70969;BMP280;58630;43.022;25.100;2023-07-02T06:17:06;;;;25.90
70969;BMP280;58630;43.022;25.100;2023-07-02T06:19:33;;;;25.90
70969;BMP280;58630;43.022;25.100;2023-07-02T06:21:58;;;;26.00
70969;BMP280;58630;43.022;25.100;2023-07-02T06:24:24;;;;26.00
70969;BMP280;58630;43.022;25.100;2023-07-02T06:26:49;;;;26.00
70969;BMP280;58630;43.022;25.100;2023-07-02T06:29:15;;;;26.10
70969;BMP280;58630;43.022;25.100;2023-07-02T06:31:40;;;;26.10
70969;BMP280;58630;43.022;25.100;2023-07-02T06:34:06;;;;26.10
70969;BMP280;58630;43.022;25.100;2023-07-02T06:36:34;;;;26.10
70969;BMP280;58630;43.022;25.100;2023-07-02T06:38:59;;;;26.10
70969;BMP280;58630;43.022;25.100;2023-07-02T06:41:25;;;;26.10
70969;BMP280;58630;43.022;25.100;2023-07-02T06:43:51;;;;26.00
70969;BMP280;58630;43.022;25.100;2023-07-02T06:46:16;;;;26.10
70969;BMP280;58630;43.022;25.100;2023-07-02T06:48:42;;;;26.10
70969;BMP280;58630;43.022;25.100;2023-07-02T06:51:07;;;;26.00
70969;BMP280;58630;43.022;25.100;2023-07-02T06:53:34;;;;26.00
70969;BMP280;58630;43.022;25.100;2023-07-02T06:55:59;;;;26.00
70969;BMP280;58630;43.022;25.100;2023-07-02T06:58:25;;;;26.00
70969;BMP280;58630;43.022;25.100;2023-07-02T07:00:50;;;;26.10
70969;BMP280;58630;43.022;25.100;2023-07-02T07:03:16;;;;26.10
70969;BMP280;58630;43.022;25.100;2023-07-02T07:05:42;;;;26.10
70969;BMP280;58630;43.022;25.100;2023-07-02T07:08:07;;;;26.10
70969;BMP280;58630;43.022;25.100;2023-07-02T07:10:33;;;;26.10
70969;BMP280;58630;43.022;25.100;2023-07-02T07:13:01;;;;26.10
70969;BMP280;58630;43.022;25.100;2023-07-02T07:15:29;;;;26.10
70969;BMP280;58630;43.022;25.100;2023-07-02T07:17:55;;;;26.10
70969;BMP280;58630;43.022;25.100;2023-07-02T07:20:21;;;;26.10
70969;BMP280;58630;43.022;25.100;2023-07-02T07:22:46;;;;26.10
70969;BMP280;58630;43.022;25.100;2023-07-02T07:25:12;;;;26.20
70969;BMP280;58630;43.022;25.100;2023-07-02T07:27:38;;;;26.20
70969;BMP280;58630;43.022;25.100;2023-07-02T07:30:03;;;;26.20
70969;BMP280;58630;43.022;25.100;2023-07-02T07:32:29;;;;26.10
70969;BMP280;58630;43.022;25.100;2023-07-02T07:34:55;;;;26.10
70969;BMP280;58630;43.022;25.100;2023-07-02T07:37:20;;;;26.10
70969;BMP280;58630;43.022;25.100;2023-07-02T07:39:46;;;;26.00
70969;BMP280;58630;43.022;25.100;2023-07-02T07:42:13;;;;26.00
70969;BMP280;58630;43.022;25.100;2023-07-02T07:44:40;;;;26.00
70969;BMP280;58630;43.022;25.100;2023-07-02T07:47:06;;;;26.00
70969;BMP280;58630;43.022;25.100;2023-07-02T07:49:31;;;;26.00
70969;BMP280;58630;43.022;25.100;2023-07-02T07:51:57;;;;26.00
70969;BMP280;58630;43.022;25.100;2023-07-02T07:54:22;;;;26.00
70969;BMP280;58630;43.022;25.100;2023-07-02T07:56:50;;;;26.00
70969;BMP280;58630;43.022;25.100;2023-07-02T07:59:15;;;;26.00
70969;BMP280;58630;43.022;25.100;2023-07-02T08:01:41;;;;26.00
70969;BMP280;58630;43.022;25.100;2023-07-02T08:04:06;;;;26.00
70969;BMP280;58630;43.022;25.100;2023-07-02T08:06:32;;;;26.00
70969;BMP280;58630;43.022;25.100;2023-07-02T08:08:58;;;;26.10
70969;BMP280;58630;43.022;25.100;2023-07-02T08:11:23;;;;26.10
70969;BMP280;58630;43.022;25.100;2023-07-02T08:13:49;;;;26.10
70969;BMP280;58630;43.022;25.100;2023-07-02T08:16:14;;;;26.10
70969;BMP280;58630;43.022;25.100;2023-07-02T08:18:40;;;;26.10
70969;BMP280;58630;43.022;25.100;2023-07-02T08:21:06;;;;26.10
70969;BMP280;58630;43.022;25.100;2023-07-02T08:23:34;;;;26.10
70969;BMP280;58630;43.022;25.100;2023-07-02T08:26:00;;;;26.10
70969;BMP280;58630;43.022;25.100;2023-07-02T08:28:26;;;;26.10
70969;BMP280;58630;43.022;25.100;2023-07-02T08:30:51;;;;26.10
70969;BMP280;58630;43.022;25.100;2023-07-02T08:33:17;;;;26.10
70969;BMP280;58630;43.022;25.100;2023-07-02T08:35:42;;;;26.10
70969;BMP280;58630;43.022;25.100;2023-07-02T08:38:08;;;;26.20
70969;BMP280;58630;43.022;25.100;2023-07-02T08:40:33;;;;26.20
70969;BMP280;58630;43.022;25.100;2023-07-02T08:42:59;;;;26.20
70969;BMP280;58630;43.022;25.100;2023-07-02T08:45:25;;;;26.20
70969;BMP280;58630;43.022;25.100;2023-07-02T08:47:50;;;;26.30
70969;BMP280;58630;43.022;25.100;2023-07-02T08:50:18;;;;26.20
70969;BMP280;58630;43.022;25.100;2023-07-02T08:52:47;;;;26.10
70969;BMP280;58630;43.022;25.100;2023-07-02T08:55:12;;;;26.20
70969;BMP280;58630;43.022;25.100;2023-07-02T08:57:38;;;;26.20
70969;BMP280;58630;43.022;25.100;2023-07-02T09:00:04;;;;26.20
70969;BMP280;58630;43.022;25.100;2023-07-02T09:03:25;;;;26.10
70969;BMP280;58630;43.022;25.100;2023-07-02T09:05:51;;;;26.10
70969;BMP280;58630;43.022;25.100;2023-07-02T09:08:27;;;;26.00
70969;BMP280;58630;43.022;25.100;2023-07-02T09:10:53;;;;26.00
70969;BMP280;58630;43.022;25.100;2023-07-02T09:13:18;;;;26.10
70969;BMP280;58630;43.022;25.100;2023-07-02T09:15:44;;;;26.10
70969;BMP280;58630;43.022;25.100;2023-07-02T09:18:22;;;;26.20
70969;BMP280;58630;43.022;25.100;2023-07-02T09:20:51;;;;26.20
70969;BMP280;58630;43.022;25.100;2023-07-02T09:23:17;;;;26.30
70969;BMP280;58630;43.022;25.100;2023-07-02T09:25:42;;;;26.30
70969;BMP280;58630;43.022;25.100;2023-07-02T09:31:00;;;;26.40
70969;BMP280;58630;43.022;25.100;2023-07-02T09:33:27;;;;26.30
70969;BMP280;58630;43.022;25.100;2023-07-02T09:35:52;;;;26.30
70969;BMP280;58630;43.022;25.100;2023-07-02T09:38:21;;;;26.30
70969;BMP280;58630;43.022;25.100;2023-07-02T09:40:49;;;;26.30
70969;BMP280;58630;43.022;25.100;2023-07-02T09:43:15;;;;26.30
70969;BMP280;58630;43.022;25.100;2023-07-02T09:45:45;;;;26.30
70969;BMP280;58630;43.022;25.100;2023-07-02T09:48:13;;;;26.40
70969;BMP280;58630;43.022;25.100;2023-07-02T09:50:43;;;;26.40
70969;BMP280;58630;43.022;25.100;2023-07-02T09:53:09;;;;26.40
70969;BMP280;58630;43.022;25.100;2023-07-02T09:55:35;;;;26.40
70969;BMP280;58630;43.022;25.100;2023-07-02T09:58:00;;;;26.40
70969;BMP280;58630;43.022;25.100;2023-07-02T10:00:26;;;;26.50
70969;BMP280;58630;43.022;25.100;2023-07-02T10:02:51;;;;26.50
70969;BMP280;58630;43.022;25.100;2023-07-02T10:05:25;;;;26.60
70969;BMP280;58630;43.022;25.100;2023-07-02T10:07:50;;;;26.60
70969;BMP280;58630;43.022;25.100;2023-07-02T10:10:25;;;;26.60
70969;BMP280;58630;43.022;25.100;2023-07-02T10:12:51;;;;26.60
70969;BMP280;58630;43.022;25.100;2023-07-02T10:15:24;;;;26.70
70969;BMP280;58630;43.022;25.100;2023-07-02T10:17:56;;;;26.80
70969;BMP280;58630;43.022;25.100;2023-07-02T10:20:39;;;;26.70
70969;BMP280;58630;43.022;25.100;2023-07-02T10:23:05;;;;26.70
70969;BMP280;58630;43.022;25.100;2023-07-02T10:25:31;;;;26.80
70969;BMP280;58630;43.022;25.100;2023-07-02T10:27:59;;;;26.80
70969;BMP280;58630;43.022;25.100;2023-07-02T10:30:37;;;;26.80
70969;BMP280;58630;43.022;25.100;2023-07-02T10:33:15;;;;26.90
70969;BMP280;58630;43.022;25.100;2023-07-02T10:35:42;;;;27.00
70969;BMP280;58630;43.022;25.100;2023-07-02T10:38:24;;;;27.10
70969;BMP280;58630;43.022;25.100;2023-07-02T10:40:57;;;;27.10
70969;BMP280;58630;43.022;25.100;2023-07-02T10:43:27;;;;27.00
70969;BMP280;58630;43.022;25.100;2023-07-02T10:45:53;;;;27.00
70969;BMP280;58630;43.022;25.100;2023-07-02T10:48:19;;;;27.00
70969;BMP280;58630;43.022;25.100;2023-07-02T10:50:44;;;;27.00
70969;BMP280;58630;43.022;25.100;2023-07-02T10:53:19;;;;27.00
70969;BMP280;58630;43.022;25.100;2023-07-02T10:55:45;;;;26.90
70969;BMP280;58630;43.022;25.100;2023-07-02T10:58:11;;;;26.90
70969;BMP280;58630;43.022;25.100;2023-07-02T11:00:46;;;;27.00
70969;BMP280;58630;43.022;25.100;2023-07-02T11:03:30;;;;27.00
70969;BMP280;58630;43.022;25.100;2023-07-02T11:05:56;;;;27.00
70969;BMP280;58630;43.022;25.100;2023-07-02T11:08:21;;;;27.10
70969;BMP280;58630;43.022;25.100;2023-07-02T11:10:48;;;;27.10
70969;BMP280;58630;43.022;25.100;2023-07-02T11:13:15;;;;27.10
70969;BMP280;58630;43.022;25.100;2023-07-02T11:15:40;;;;27.20
70969;BMP280;58630;43.022;25.100;2023-07-02T11:20:36;;;;27.30
70969;BMP280;58630;43.022;25.100;2023-07-02T11:23:02;;;;27.30
70969;BMP280;58630;43.022;25.100;2023-07-02T11:25:27;;;;27.30
70969;BMP280;58630;43.022;25.100;2023-07-02T11:28:03;;;;27.30
70969;BMP280;58630;43.022;25.100;2023-07-02T11:30:28;;;;27.20
70969;BMP280;58630;43.022;25.100;2023-07-02T11:32:54;;;;27.30
70969;BMP280;58630;43.022;25.100;2023-07-02T11:35:20;;;;27.40
70969;BMP280;58630;43.022;25.100;2023-07-02T11:37:46;;;;27.50
70969;BMP280;58630;43.022;25.100;2023-07-02T11:40:14;;;;27.50
70969;BMP280;58630;43.022;25.100;2023-07-02T11:42:40;;;;27.40
70969;BMP280;58630;43.022;25.100;2023-07-02T11:45:05;;;;27.40
70969;BMP280;58630;43.022;25.100;2023-07-02T11:47:31;;;;27.40
70969;BMP280;58630;43.022;25.100;2023-07-02T11:49:57;;;;27.40
70969;BMP280;58630;43.022;25.100;2023-07-02T11:52:24;;;;27.60
70969;BMP280;58630;43.022;25.100;2023-07-02T11:54:50;;;;27.60
70969;BMP280;58630;43.022;25.100;2023-07-02T11:57:16;;;;27.80
70969;BMP280;58630;43.022;25.100;2023-07-02T11:59:41;;;;27.70
70969;BMP280;58630;43.022;25.100;2023-07-02T12:02:07;;;;27.80
70969;BMP280;58630;43.022;25.100;2023-07-02T12:04:32;;;;27.90
70969;BMP280;58630;43.022;25.100;2023-07-02T12:06:58;;;;27.80
70969;BMP280;58630;43.022;25.100;2023-07-02T12:09:26;;;;27.80
70969;BMP280;58630;43.022;25.100;2023-07-02T12:11:52;;;;27.90
70969;BMP280;58630;43.022;25.100;2023-07-02T12:14:18;;;;27.90
70969;BMP280;58630;43.022;25.100;2023-07-02T12:16:44;;;;27.90
70969;BMP280;58630;43.022;25.100;2023-07-02T12:19:09;;;;27.80
70969;BMP280;58630;43.022;25.100;2023-07-02T12:21:35;;;;27.90
70969;BMP280;58630;43.022;25.100;2023-07-02T12:24:02;;;;27.90
70969;BMP280;58630;43.022;25.100;2023-07-02T12:26:27;;;;28.00
70969;BMP280;58630;43.022;25.100;2023-07-02T12:28:54;;;;28.00
70969;BMP280;58630;43.022;25.100;2023-07-02T12:31:19;;;;28.00
70969;BMP280;58630;43.022;25.100;2023-07-02T12:33:45;;;;28.20
70969;BMP280;58630;43.022;25.100;2023-07-02T12:36:11;;;;28.20
70969;BMP280;58630;43.022;25.100;2023-07-02T12:38:36;;;;28.30
70969;BMP280;58630;43.022;25.100;2023-07-02T12:41:02;;;;28.30
70969;BMP280;58630;43.022;25.100;2023-07-02T12:43:27;;;;28.30
70969;BMP280;58630;43.022;25.100;2023-07-02T12:45:53;;;;28.30
70969;BMP280;58630;43.022;25.100;2023-07-02T12:48:18;;;;28.30
70969;BMP280;58630;43.022;25.100;2023-07-02T12:50:57;;;;28.20
70969;BMP280;58630;43.022;25.100;2023-07-02T12:53:23;;;;28.20
70969;BMP280;58630;43.022;25.100;2023-07-02T12:55:49;;;;28.20
70969;BMP280;58630;43.022;25.100;2023-07-02T12:58:14;;;;28.20
70969;BMP280;58630;43.022;25.100;2023-07-02T13:00:40;;;;28.20
70969;BMP280;58630;43.022;25.100;2023-07-02T13:03:09;;;;28.20
70969;BMP280;58630;43.022;25.100;2023-07-02T13:05:35;;;;28.20
70969;BMP280;58630;43.022;25.100;2023-07-02T13:08:01;;;;28.20
70969;BMP280;58630;43.022;25.100;2023-07-02T13:10:26;;;;28.10
70969;BMP280;58630;43.022;25.100;2023-07-02T13:12:52;;;;28.10
70969;BMP280;58630;43.022;25.100;2023-07-02T13:15:17;;;;28.10
70969;BMP280;58630;43.022;25.100;2023-07-02T13:17:43;;;;28.00
70969;BMP280;58630;43.022;25.100;2023-07-02T13:20:09;;;;28.10
70969;BMP280;58630;43.022;25.100;2023-07-02T13:22:34;;;;28.10
70969;BMP280;58630;43.022;25.100;2023-07-02T13:25:00;;;;28.20
70969;BMP280;58630;43.022;25.100;2023-07-02T13:27:25;;;;28.30
70969;BMP280;58630;43.022;25.100;2023-07-02T13:29:51;;;;28.30
70969;BMP280;58630;43.022;25.100;2023-07-02T13:32:16;;;;28.50
70969;BMP280;58630;43.022;25.100;2023-07-02T13:34:42;;;;28.60
70969;BMP280;58630;43.022;25.100;2023-07-02T13:37:08;;;;28.60
70969;BMP280;58630;43.022;25.100;2023-07-02T13:39:33;;;;28.60
70969;BMP280;58630;43.022;25.100;2023-07-02T13:41:59;;;;28.60
70969;BMP280;58630;43.022;25.100;2023-07-02T13:44:25;;;;28.60
70969;BMP280;58630;43.022;25.100;2023-07-02T13:46:50;;;;28.60
70969;BMP280;58630;43.022;25.100;2023-07-02T13:49:16;;;;28.80
70969;BMP280;58630;43.022;25.100;2023-07-02T13:51:41;;;;28.70
70969;BMP280;58630;43.022;25.100;2023-07-02T13:54:07;;;;28.70
70969;BMP280;58630;43.022;25.100;2023-07-02T13:56:32;;;;28.90
70969;BMP280;58630;43.022;25.100;2023-07-02T13:58:59;;;;29.00
70969;BMP280;58630;43.022;25.100;2023-07-02T14:01:25;;;;28.90
70969;BMP280;58630;43.022;25.100;2023-07-02T14:03:50;;;;28.80
70969;BMP280;58630;43.022;25.100;2023-07-02T14:06:17;;;;28.90
70969;BMP280;58630;43.022;25.100;2023-07-02T14:08:43;;;;28.90
70969;BMP280;58630;43.022;25.100;2023-07-02T14:11:09;;;;28.90
70969;BMP280;58630;43.022;25.100;2023-07-02T14:13:34;;;;28.90
70969;BMP280;58630;43.022;25.100;2023-07-02T14:16:01;;;;28.90
70969;BMP280;58630;43.022;25.100;2023-07-02T14:18:27;;;;29.10
70969;BMP280;58630;43.022;25.100;2023-07-02T14:20:53;;;;29.40
70969;BMP280;58630;43.022;25.100;2023-07-02T14:23:18;;;;29.30
70969;BMP280;58630;43.022;25.100;2023-07-02T14:25:44;;;;29.20
70969;BMP280;58630;43.022;25.100;2023-07-02T14:28:09;;;;29.20
70969;BMP280;58630;43.022;25.100;2023-07-02T14:30:35;;;;29.10
70969;BMP280;58630;43.022;25.100;2023-07-02T14:33:01;;;;29.20
70969;BMP280;58630;43.022;25.100;2023-07-02T14:35:27;;;;29.20
70969;BMP280;58630;43.022;25.100;2023-07-02T14:37:55;;;;29.20
70969;BMP280;58630;43.022;25.100;2023-07-02T14:40:20;;;;29.10
70969;BMP280;58630;43.022;25.100;2023-07-02T14:42:46;;;;29.00
70969;BMP280;58630;43.022;25.100;2023-07-02T14:45:11;;;;29.00
70969;BMP280;58630;43.022;25.100;2023-07-02T14:47:37;;;;28.90
70969;BMP280;58630;43.022;25.100;2023-07-02T14:50:03;;;;28.90
70969;BMP280;58630;43.022;25.100;2023-07-02T14:52:29;;;;28.90
70969;BMP280;58630;43.022;25.100;2023-07-02T14:54:54;;;;28.90
70969;BMP280;58630;43.022;25.100;2023-07-02T14:57:20;;;;29.00
70969;BMP280;58630;43.022;25.100;2023-07-02T14:59:47;;;;29.00
70969;BMP280;58630;43.022;25.100;2023-07-02T15:02:14;;;;29.00
70969;BMP280;58630;43.022;25.100;2023-07-02T15:04:40;;;;29.00
70969;BMP280;58630;43.022;25.100;2023-07-02T15:07:06;;;;28.90
70969;BMP280;58630;43.022;25.100;2023-07-02T15:09:31;;;;28.90
70969;BMP280;58630;43.022;25.100;2023-07-02T15:11:57;;;;28.90
70969;BMP280;58630;43.022;25.100;2023-07-02T15:14:23;;;;28.90
70969;BMP280;58630;43.022;25.100;2023-07-02T15:16:48;;;;28.90
70969;BMP280;58630;43.022;25.100;2023-07-02T15:19:14;;;;29.00
70969;BMP280;58630;43.022;25.100;2023-07-02T15:21:41;;;;29.00
70969;BMP280;58630;43.022;25.100;2023-07-02T15:24:07;;;;29.00
70969;BMP280;58630;43.022;25.100;2023-07-02T15:26:35;;;;29.00
70969;BMP280;58630;43.022;25.100;2023-07-02T15:29:01;;;;28.90
70969;BMP280;58630;43.022;25.100;2023-07-02T15:31:27;;;;28.80
70969;BMP280;58630;43.022;25.100;2023-07-02T15:33:52;;;;28.60
70969;BMP280;58630;43.022;25.100;2023-07-02T15:36:18;;;;28.40
70969;BMP280;58630;43.022;25.100;2023-07-02T15:38:44;;;;28.10
70969;BMP280;58630;43.022;25.100;2023-07-02T15:41:12;;;;28.10
70969;BMP280;58630;43.022;25.100;2023-07-02T15:43:41;;;;28.10
70969;BMP280;58630;43.022;25.100;2023-07-02T15:46:08;;;;28.10